sensor_id;sensor_type;location;lat;lon;timestamp;P1;durP1;ratioP1;P2;durP2;ratioP2
70122;SDS011;57489;37.404;24.920;2023-09-19T00:02:12;8.27;;;2.90;;
70122;SDS011;57489;37.404;24.920;2023-09-19T00:07:12;8.77;;;2.77;;
70122;SDS011;57489;37.404;24.920;2023-09-19T00:12:13;6.10;;;2.40;;
70122;SDS011;57489;37.404;24.920;2023-09-19T00:17:13;9.13;;;2.97;;
70122;SDS011;57489;37.404;24.920;2023-09-19T00:22:14;7.70;;;3.10;;
70122;SDS011;57489;37.404;24.920;2023-09-19T00:27:14;7.87;;;2.53;;
70122;SDS011;57489;37.404;24.920;2023-09-19T00:32:15;5.07;;;2.10;;
70122;SDS011;57489;37.404;24.920;2023-09-19T00:37:15;7.63;;;2.53;;
70122;SDS011;57489;37.404;24.920;2023-09-19T00:42:21;6.90;;;2.93;;
70122;SDS011;57489;37.404;24.920;2023-09-19T00:47:22;6.13;;;2.38;;
70122;SDS011;57489;37.404;24.920;2023-09-19T00:52:22;5.93;;;2.70;;
70122;SDS011;57489;37.404;24.920;2023-09-19T00:57:23;9.37;;;2.87;;
70122;SDS011;57489;37.404;24.920;2023-09-19T01:02:24;6.75;;;2.50;;
70122;SDS011;57489;37.404;24.920;2023-09-19T01:07:26;5.87;;;2.37;;
70122;SDS011;57489;37.404;24.920;2023-09-19T01:12:30;5.90;;;2.35;;
70122;SDS011;57489;37.404;24.920;2023-09-19T01:17:44;6.10;;;2.75;;
70122;SDS011;57489;37.404;24.920;2023-09-19T01:23:11;7.23;;;2.37;;
70122;SDS011;57489;37.404;24.920;2023-09-19T01:33:22;5.57;;;2.40;;
70122;SDS011;57489;37.404;24.920;2023-09-19T01:38:22;7.63;;;2.30;;
70122;SDS011;57489;37.404;24.920;2023-09-19T01:43:33;7.53;;;2.87;;
70122;SDS011;57489;37.404;24.920;2023-09-19T01:54:20;5.40;;;2.50;;
70122;SDS011;57489;37.404;24.920;2023-09-19T01:59:36;6.93;;;2.45;;
70122;SDS011;57489;37.404;24.920;2023-09-19T02:04:41;7.50;;;2.40;;
70122;SDS011;57489;37.404;24.920;2023-09-19T02:09:41;6.17;;;2.77;;
70122;SDS011;57489;37.404;24.920;2023-09-19T02:14:42;8.97;;;3.17;;
70122;SDS011;57489;37.404;24.920;2023-09-19T02:19:42;7.50;;;2.43;;
70122;SDS011;57489;37.404;24.920;2023-09-19T02:24:43;6.10;;;2.30;;
70122;SDS011;57489;37.404;24.920;2023-09-19T02:29:43;6.87;;;2.33;;
70122;SDS011;57489;37.404;24.920;2023-09-19T02:34:44;6.70;;;2.40;;
70122;SDS011;57489;37.404;24.920;2023-09-19T02:39:44;5.50;;;2.40;;
70122;SDS011;57489;37.404;24.920;2023-09-19T02:44:45;6.37;;;2.53;;
70122;SDS011;57489;37.404;24.920;2023-09-19T02:49:45;6.13;;;2.63;;
70122;SDS011;57489;37.404;24.920;2023-09-19T02:54:46;6.27;;;2.70;;
70122;SDS011;57489;37.404;24.920;2023-09-19T02:59:46;6.83;;;2.27;;
70122;SDS011;57489;37.404;24.920;2023-09-19T03:04:47;7.43;;;2.97;;
70122;SDS011;57489;37.404;24.920;2023-09-19T03:09:47;5.93;;;2.10;;
70122;SDS011;57489;37.404;24.920;2023-09-19T03:14:48;6.60;;;2.57;;
70122;SDS011;57489;37.404;24.920;2023-09-19T03:19:48;5.53;;;2.50;;
70122;SDS011;57489;37.404;24.920;2023-09-19T03:24:49;4.83;;;2.53;;
70122;SDS011;57489;37.404;24.920;2023-09-19T03:29:49;6.27;;;2.50;;
70122;SDS011;57489;37.404;24.920;2023-09-19T03:34:50;6.23;;;2.40;;
70122;SDS011;57489;37.404;24.920;2023-09-19T03:39:50;5.87;;;2.70;;
70122;SDS011;57489;37.404;24.920;2023-09-19T03:44:51;5.63;;;2.37;;
70122;SDS011;57489;37.404;24.920;2023-09-19T03:49:52;7.13;;;2.50;;
70122;SDS011;57489;37.404;24.920;2023-09-19T03:54:52;6.57;;;2.77;;
70122;SDS011;57489;37.404;24.920;2023-09-19T03:59:53;5.87;;;2.67;;
70122;SDS011;57489;37.404;24.920;2023-09-19T04:04:53;5.40;;;2.63;;
70122;SDS011;57489;37.404;24.920;2023-09-19T04:09:53;5.97;;;3.13;;
70122;SDS011;57489;37.404;24.920;2023-09-19T04:14:54;7.00;;;2.67;;
70122;SDS011;57489;37.404;24.920;2023-09-19T04:19:55;7.33;;;2.63;;
70122;SDS011;57489;37.404;24.920;2023-09-19T04:24:56;5.90;;;2.50;;
70122;SDS011;57489;37.404;24.920;2023-09-19T04:29:56;7.10;;;2.80;;
70122;SDS011;57489;37.404;24.920;2023-09-19T04:34:57;6.73;;;2.80;;
70122;SDS011;57489;37.404;24.920;2023-09-19T04:39:57;7.87;;;2.87;;
70122;SDS011;57489;37.404;24.920;2023-09-19T04:44:58;9.07;;;3.10;;
70122;SDS011;57489;37.404;24.920;2023-09-19T04:49:58;9.00;;;3.07;;
70122;SDS011;57489;37.404;24.920;2023-09-19T04:54:59;9.60;;;3.60;;
70122;SDS011;57489;37.404;24.920;2023-09-19T04:59:59;10.97;;;4.00;;
70122;SDS011;57489;37.404;24.920;2023-09-19T05:05:00;8.50;;;3.43;;
70122;SDS011;57489;37.404;24.920;2023-09-19T05:10:00;9.60;;;3.27;;
70122;SDS011;57489;37.404;24.920;2023-09-19T05:15:02;8.30;;;2.97;;
70122;SDS011;57489;37.404;24.920;2023-09-19T05:20:03;8.48;;;2.92;;
70122;SDS011;57489;37.404;24.920;2023-09-19T05:25:04;9.43;;;2.93;;
70122;SDS011;57489;37.404;24.920;2023-09-19T05:30:05;11.50;;;4.25;;
70122;SDS011;57489;37.404;24.920;2023-09-19T05:35:06;12.27;;;3.17;;
70122;SDS011;57489;37.404;24.920;2023-09-19T05:40:06;9.05;;;3.75;;
70122;SDS011;57489;37.404;24.920;2023-09-19T05:45:07;9.17;;;3.20;;
70122;SDS011;57489;37.404;24.920;2023-09-19T05:50:08;9.00;;;3.13;;
70122;SDS011;57489;37.404;24.920;2023-09-19T05:55:09;10.65;;;3.40;;
70122;SDS011;57489;37.404;24.920;2023-09-19T06:00:10;11.57;;;3.53;;
70122;SDS011;57489;37.404;24.920;2023-09-19T06:05:11;11.70;;;4.10;;
70122;SDS011;57489;37.404;24.920;2023-09-19T06:10:11;9.93;;;3.70;;
70122;SDS011;57489;37.404;24.920;2023-09-19T06:15:13;8.90;;;3.40;;
70122;SDS011;57489;37.404;24.920;2023-09-19T06:20:14;9.47;;;3.60;;
70122;SDS011;57489;37.404;24.920;2023-09-19T06:25:15;9.00;;;3.20;;
70122;SDS011;57489;37.404;24.920;2023-09-19T06:30:16;7.72;;;3.30;;
70122;SDS011;57489;37.404;24.920;2023-09-19T06:35:16;8.37;;;3.60;;
70122;SDS011;57489;37.404;24.920;2023-09-19T06:40:17;8.17;;;3.13;;
70122;SDS011;57489;37.404;24.920;2023-09-19T06:45:18;7.57;;;3.73;;
70122;SDS011;57489;37.404;24.920;2023-09-19T06:50:19;10.65;;;3.20;;
70122;SDS011;57489;37.404;24.920;2023-09-19T06:55:22;8.83;;;3.63;;
70122;SDS011;57489;37.404;24.920;2023-09-19T07:00:22;6.13;;;2.83;;
70122;SDS011;57489;37.404;24.920;2023-09-19T07:05:23;9.50;;;3.93;;
70122;SDS011;57489;37.404;24.920;2023-09-19T07:10:24;9.07;;;3.77;;
70122;SDS011;57489;37.404;24.920;2023-09-19T07:15:25;10.18;;;3.40;;
70122;SDS011;57489;37.404;24.920;2023-09-19T07:20:26;12.77;;;4.18;;
70122;SDS011;57489;37.404;24.920;2023-09-19T07:25:27;10.90;;;4.07;;
70122;SDS011;57489;37.404;24.920;2023-09-19T07:30:28;9.35;;;4.30;;
70122;SDS011;57489;37.404;24.920;2023-09-19T07:35:28;10.10;;;3.90;;
70122;SDS011;57489;37.404;24.920;2023-09-19T07:40:29;9.53;;;3.70;;
70122;SDS011;57489;37.404;24.920;2023-09-19T07:45:29;10.57;;;4.90;;
70122;SDS011;57489;37.404;24.920;2023-09-19T07:50:34;9.48;;;3.58;;
70122;SDS011;57489;37.404;24.920;2023-09-19T07:55:35;10.80;;;3.10;;
70122;SDS011;57489;37.404;24.920;2023-09-19T08:00:35;10.57;;;3.60;;
70122;SDS011;57489;37.404;24.920;2023-09-19T08:05:35;9.37;;;4.00;;
70122;SDS011;57489;37.404;24.920;2023-09-19T08:10:36;10.17;;;4.00;;
70122;SDS011;57489;37.404;24.920;2023-09-19T08:15:37;8.52;;;3.90;;
70122;SDS011;57489;37.404;24.920;2023-09-19T08:20:43;8.57;;;3.90;;
70122;SDS011;57489;37.404;24.920;2023-09-19T08:25:56;10.73;;;4.15;;
70122;SDS011;57489;37.404;24.920;2023-09-19T08:31:00;10.77;;;3.80;;
70122;SDS011;57489;37.404;24.920;2023-09-19T08:36:02;9.97;;;3.20;;
70122;SDS011;57489;37.404;24.920;2023-09-19T08:41:07;10.63;;;4.00;;
70122;SDS011;57489;37.404;24.920;2023-09-19T08:46:11;9.70;;;3.22;;
70122;SDS011;57489;37.404;24.920;2023-09-19T08:51:21;11.70;;;3.33;;
70122;SDS011;57489;37.404;24.920;2023-09-19T08:56:26;11.63;;;3.50;;
70122;SDS011;57489;37.404;24.920;2023-09-19T09:01:29;10.75;;;3.47;;
70122;SDS011;57489;37.404;24.920;2023-09-19T09:06:30;11.70;;;3.93;;
70122;SDS011;57489;37.404;24.920;2023-09-19T09:11:32;10.00;;;4.27;;
70122;SDS011;57489;37.404;24.920;2023-09-19T09:16:33;9.75;;;4.82;;
70122;SDS011;57489;37.404;24.920;2023-09-19T09:21:34;13.47;;;4.23;;
70122;SDS011;57489;37.404;24.920;2023-09-19T09:26:41;11.97;;;4.43;;
70122;SDS011;57489;37.404;24.920;2023-09-19T09:31:42;8.80;;;3.55;;
70122;SDS011;57489;37.404;24.920;2023-09-19T09:36:43;11.37;;;4.17;;
70122;SDS011;57489;37.404;24.920;2023-09-19T09:41:48;9.27;;;3.92;;
70122;SDS011;57489;37.404;24.920;2023-09-19T09:46:49;17.30;;;5.27;;
70122;SDS011;57489;37.404;24.920;2023-09-19T09:51:50;8.80;;;3.85;;
70122;SDS011;57489;37.404;24.920;2023-09-19T09:56:58;9.57;;;3.87;;
70122;SDS011;57489;37.404;24.920;2023-09-19T10:02:01;12.07;;;4.07;;
70122;SDS011;57489;37.404;24.920;2023-09-19T10:07:02;12.35;;;3.50;;
70122;SDS011;57489;37.404;24.920;2023-09-19T10:12:03;9.07;;;3.87;;
70122;SDS011;57489;37.404;24.920;2023-09-19T10:17:06;11.07;;;4.20;;
70122;SDS011;57489;37.404;24.920;2023-09-19T10:22:10;9.73;;;3.67;;
70122;SDS011;57489;37.404;24.920;2023-09-19T10:27:12;11.33;;;4.07;;
70122;SDS011;57489;37.404;24.920;2023-09-19T10:32:13;9.20;;;4.07;;
70122;SDS011;57489;37.404;24.920;2023-09-19T10:37:17;7.70;;;3.80;;
70122;SDS011;57489;37.404;24.920;2023-09-19T10:42:20;9.85;;;3.85;;
70122;SDS011;57489;37.404;24.920;2023-09-19T10:47:20;15.40;;;4.00;;
70122;SDS011;57489;37.404;24.920;2023-09-19T10:52:22;9.10;;;3.58;;
70122;SDS011;57489;37.404;24.920;2023-09-19T10:57:25;8.53;;;3.70;;
70122;SDS011;57489;37.404;24.920;2023-09-19T11:02:25;7.40;;;3.83;;
70122;SDS011;57489;37.404;24.920;2023-09-19T11:07:26;8.77;;;3.83;;
70122;SDS011;57489;37.404;24.920;2023-09-19T11:17:33;8.18;;;3.78;;
70122;SDS011;57489;37.404;24.920;2023-09-19T11:33:16;9.40;;;3.45;;
70122;SDS011;57489;37.404;24.920;2023-09-19T11:38:34;8.67;;;3.90;;
70122;SDS011;57489;37.404;24.920;2023-09-19T11:43:43;8.27;;;3.05;;
70122;SDS011;57489;37.404;24.920;2023-09-19T11:48:43;14.60;;;3.83;;
70122;SDS011;57489;37.404;24.920;2023-09-19T11:53:45;9.10;;;3.85;;
70122;SDS011;57489;37.404;24.920;2023-09-19T11:58:46;11.73;;;3.87;;
70122;SDS011;57489;37.404;24.920;2023-09-19T12:03:52;9.20;;;3.57;;
70122;SDS011;57489;37.404;24.920;2023-09-19T12:08:53;10.45;;;4.03;;
70122;SDS011;57489;37.404;24.920;2023-09-19T12:13:54;11.80;;;4.23;;
70122;SDS011;57489;37.404;24.920;2023-09-19T12:18:54;10.47;;;4.33;;
70122;SDS011;57489;37.404;24.920;2023-09-19T12:29:02;8.35;;;4.00;;
70122;SDS011;57489;37.404;24.920;2023-09-19T12:34:03;8.43;;;4.00;;
70122;SDS011;57489;37.404;24.920;2023-09-19T12:39:03;8.87;;;4.27;;
70122;SDS011;57489;37.404;24.920;2023-09-19T12:44:04;13.73;;;4.83;;
70122;SDS011;57489;37.404;24.920;2023-09-19T12:49:14;14.68;;;4.72;;
70122;SDS011;57489;37.404;24.920;2023-09-19T12:54:18;19.93;;;5.33;;
70122;SDS011;57489;37.404;24.920;2023-09-19T12:59:19;12.23;;;4.27;;
70122;SDS011;57489;37.404;24.920;2023-09-19T13:04:29;13.40;;;4.70;;
70122;SDS011;57489;37.404;24.920;2023-09-19T13:09:30;7.88;;;3.80;;
70122;SDS011;57489;37.404;24.920;2023-09-19T13:14:30;10.70;;;3.77;;
70122;SDS011;57489;37.404;24.920;2023-09-19T13:19:41;11.60;;;4.33;;
70122;SDS011;57489;37.404;24.920;2023-09-19T13:24:43;8.90;;;4.00;;
70122;SDS011;57489;37.404;24.920;2023-09-19T13:29:43;10.70;;;3.17;;
70122;SDS011;57489;37.404;24.920;2023-09-19T13:34:44;10.20;;;3.67;;
70122;SDS011;57489;37.404;24.920;2023-09-19T13:39:44;8.73;;;3.90;;
70122;SDS011;57489;37.404;24.920;2023-09-19T13:44:45;7.97;;;3.20;;
70122;SDS011;57489;37.404;24.920;2023-09-19T13:49:45;11.70;;;3.30;;
70122;SDS011;57489;37.404;24.920;2023-09-19T13:54:46;7.77;;;3.67;;
70122;SDS011;57489;37.404;24.920;2023-09-19T13:59:46;7.55;;;3.30;;
70122;SDS011;57489;37.404;24.920;2023-09-19T14:04:46;7.63;;;3.40;;
70122;SDS011;57489;37.404;24.920;2023-09-19T14:09:47;9.40;;;2.87;;
70122;SDS011;57489;37.404;24.920;2023-09-19T14:14:47;9.03;;;3.93;;
70122;SDS011;57489;37.404;24.920;2023-09-19T14:19:48;13.10;;;3.60;;
70122;SDS011;57489;37.404;24.920;2023-09-19T14:24:48;8.87;;;3.60;;
70122;SDS011;57489;37.404;24.920;2023-09-19T14:29:49;8.17;;;3.57;;
70122;SDS011;57489;37.404;24.920;2023-09-19T14:34:49;7.77;;;2.87;;
70122;SDS011;57489;37.404;24.920;2023-09-19T14:39:50;8.23;;;3.10;;
70122;SDS011;57489;37.404;24.920;2023-09-19T14:44:50;9.30;;;3.67;;
70122;SDS011;57489;37.404;24.920;2023-09-19T14:49:51;9.47;;;3.03;;
70122;SDS011;57489;37.404;24.920;2023-09-19T14:54:51;9.53;;;3.20;;
70122;SDS011;57489;37.404;24.920;2023-09-19T14:59:52;9.60;;;3.03;;
70122;SDS011;57489;37.404;24.920;2023-09-19T15:04:52;7.60;;;3.20;;
70122;SDS011;57489;37.404;24.920;2023-09-19T15:09:52;12.33;;;3.53;;
70122;SDS011;57489;37.404;24.920;2023-09-19T15:14:53;7.57;;;2.80;;
70122;SDS011;57489;37.404;24.920;2023-09-19T15:19:53;10.03;;;3.37;;
70122;SDS011;57489;37.404;24.920;2023-09-19T15:24:54;9.90;;;3.92;;
70122;SDS011;57489;37.404;24.920;2023-09-19T15:29:54;7.67;;;2.93;;
70122;SDS011;57489;37.404;24.920;2023-09-19T15:34:55;9.93;;;2.87;;
70122;SDS011;57489;37.404;24.920;2023-09-19T15:39:55;8.40;;;3.27;;
70122;SDS011;57489;37.404;24.920;2023-09-19T15:44:56;9.50;;;3.63;;
70122;SDS011;57489;37.404;24.920;2023-09-19T15:49:56;7.23;;;3.10;;
70122;SDS011;57489;37.404;24.920;2023-09-19T15:54:57;10.37;;;3.83;;
70122;SDS011;57489;37.404;24.920;2023-09-19T15:59:57;7.97;;;4.00;;
70122;SDS011;57489;37.404;24.920;2023-09-19T16:04:57;9.33;;;3.90;;
70122;SDS011;57489;37.404;24.920;2023-09-19T16:09:58;8.63;;;3.53;;
70122;SDS011;57489;37.404;24.920;2023-09-19T16:14:59;11.45;;;3.92;;
70122;SDS011;57489;37.404;24.920;2023-09-19T16:19:59;9.33;;;3.80;;
70122;SDS011;57489;37.404;24.920;2023-09-19T16:25:00;6.73;;;3.10;;
70122;SDS011;57489;37.404;24.920;2023-09-19T16:30:00;9.77;;;3.60;;
70122;SDS011;57489;37.404;24.920;2023-09-19T16:35:00;11.73;;;3.90;;
70122;SDS011;57489;37.404;24.920;2023-09-19T16:40:01;11.77;;;4.57;;
70122;SDS011;57489;37.404;24.920;2023-09-19T16:45:02;8.10;;;3.85;;
70122;SDS011;57489;37.404;24.920;2023-09-19T16:50:02;10.43;;;3.30;;
70122;SDS011;57489;37.404;24.920;2023-09-19T16:55:03;8.30;;;3.80;;
70122;SDS011;57489;37.404;24.920;2023-09-19T17:00:05;8.93;;;3.88;;
70122;SDS011;57489;37.404;24.920;2023-09-19T17:05:06;10.50;;;3.80;;
70122;SDS011;57489;37.404;24.920;2023-09-19T17:10:07;8.70;;;3.73;;
70122;SDS011;57489;37.404;24.920;2023-09-19T17:15:08;7.35;;;3.20;;
70122;SDS011;57489;37.404;24.920;2023-09-19T17:20:08;6.30;;;3.03;;
70122;SDS011;57489;37.404;24.920;2023-09-19T17:25:09;11.13;;;3.83;;
70122;SDS011;57489;37.404;24.920;2023-09-19T17:30:10;11.97;;;3.60;;
70122;SDS011;57489;37.404;24.920;2023-09-19T17:35:13;7.70;;;3.30;;
70122;SDS011;57489;37.404;24.920;2023-09-19T17:40:14;7.13;;;3.00;;
70122;SDS011;57489;37.404;24.920;2023-09-19T17:45:14;6.83;;;2.80;;
70122;SDS011;57489;37.404;24.920;2023-09-19T17:50:15;8.48;;;3.30;;
70122;SDS011;57489;37.404;24.920;2023-09-19T17:55:15;7.33;;;3.07;;
70122;SDS011;57489;37.404;24.920;2023-09-19T18:00:16;7.97;;;3.40;;
70122;SDS011;57489;37.404;24.920;2023-09-19T18:05:17;8.13;;;3.10;;
70122;SDS011;57489;37.404;24.920;2023-09-19T18:10:17;6.70;;;3.27;;
70122;SDS011;57489;37.404;24.920;2023-09-19T18:15:17;7.60;;;3.33;;
70122;SDS011;57489;37.404;24.920;2023-09-19T18:20:18;10.40;;;3.83;;
70122;SDS011;57489;37.404;24.920;2023-09-19T18:25:18;7.00;;;3.40;;
70122;SDS011;57489;37.404;24.920;2023-09-19T18:30:19;11.97;;;3.50;;
70122;SDS011;57489;37.404;24.920;2023-09-19T18:35:19;6.63;;;3.17;;
70122;SDS011;57489;37.404;24.920;2023-09-19T18:40:21;9.87;;;4.10;;
70122;SDS011;57489;37.404;24.920;2023-09-19T18:45:22;5.77;;;3.40;;
70122;SDS011;57489;37.404;24.920;2023-09-19T18:50:22;7.00;;;3.63;;
70122;SDS011;57489;37.404;24.920;2023-09-19T18:55:23;7.47;;;3.57;;
70122;SDS011;57489;37.404;24.920;2023-09-19T19:00:23;6.67;;;3.63;;
70122;SDS011;57489;37.404;24.920;2023-09-19T19:05:24;8.87;;;2.93;;
70122;SDS011;57489;37.404;24.920;2023-09-19T19:10:24;6.87;;;3.43;;
70122;SDS011;57489;37.404;24.920;2023-09-19T19:15:25;7.90;;;2.73;;
70122;SDS011;57489;37.404;24.920;2023-09-19T19:20:25;6.87;;;2.90;;
70122;SDS011;57489;37.404;24.920;2023-09-19T19:25:26;8.60;;;3.37;;
70122;SDS011;57489;37.404;24.920;2023-09-19T19:30:26;7.22;;;3.35;;
70122;SDS011;57489;37.404;24.920;2023-09-19T19:35:26;7.63;;;3.70;;
70122;SDS011;57489;37.404;24.920;2023-09-19T19:40:27;7.60;;;3.07;;
70122;SDS011;57489;37.404;24.920;2023-09-19T19:45:27;8.70;;;3.30;;
70122;SDS011;57489;37.404;24.920;2023-09-19T19:50:29;9.20;;;3.53;;
70122;SDS011;57489;37.404;24.920;2023-09-19T19:55:31;6.13;;;3.08;;
70122;SDS011;57489;37.404;24.920;2023-09-19T20:00:32;6.73;;;2.70;;
70122;SDS011;57489;37.404;24.920;2023-09-19T20:05:36;7.50;;;3.67;;
70122;SDS011;57489;37.404;24.920;2023-09-19T20:10:37;7.67;;;3.77;;
70122;SDS011;57489;37.404;24.920;2023-09-19T20:15:38;7.32;;;3.40;;
70122;SDS011;57489;37.404;24.920;2023-09-19T20:20:39;6.73;;;3.23;;
70122;SDS011;57489;37.404;24.920;2023-09-19T20:25:40;6.23;;;3.00;;
70122;SDS011;57489;37.404;24.920;2023-09-19T20:30:40;9.60;;;3.20;;
70122;SDS011;57489;37.404;24.920;2023-09-19T20:35:41;8.00;;;3.20;;
70122;SDS011;57489;37.404;24.920;2023-09-19T20:40:42;6.97;;;3.00;;
70122;SDS011;57489;37.404;24.920;2023-09-19T20:45:42;7.03;;;2.80;;
70122;SDS011;57489;37.404;24.920;2023-09-19T20:50:43;7.10;;;3.93;;
70122;SDS011;57489;37.404;24.920;2023-09-19T20:55:43;8.50;;;3.63;;
70122;SDS011;57489;37.404;24.920;2023-09-19T21:00:44;8.33;;;3.57;;
70122;SDS011;57489;37.404;24.920;2023-09-19T21:05:44;6.88;;;2.90;;
70122;SDS011;57489;37.404;24.920;2023-09-19T21:10:45;6.70;;;2.63;;
70122;SDS011;57489;37.404;24.920;2023-09-19T21:15:45;9.67;;;2.80;;
70122;SDS011;57489;37.404;24.920;2023-09-19T21:20:46;9.70;;;3.17;;
70122;SDS011;57489;37.404;24.920;2023-09-19T21:25:55;8.47;;;3.23;;
70122;SDS011;57489;37.404;24.920;2023-09-19T21:30:57;7.80;;;2.95;;
70122;SDS011;57489;37.404;24.920;2023-09-19T21:36:01;9.53;;;2.87;;
70122;SDS011;57489;37.404;24.920;2023-09-19T21:41:11;7.95;;;3.10;;
70122;SDS011;57489;37.404;24.920;2023-09-19T21:46:15;7.53;;;3.33;;
70122;SDS011;57489;37.404;24.920;2023-09-19T21:51:16;8.35;;;2.97;;
70122;SDS011;57489;37.404;24.920;2023-09-19T21:56:17;7.70;;;3.28;;
70122;SDS011;57489;37.404;24.920;2023-09-19T22:01:18;6.03;;;3.13;;
70122;SDS011;57489;37.404;24.920;2023-09-19T22:06:20;7.73;;;3.23;;
70122;SDS011;57489;37.404;24.920;2023-09-19T22:11:21;7.37;;;2.50;;
70122;SDS011;57489;37.404;24.920;2023-09-19T22:16:21;5.57;;;2.77;;
70122;SDS011;57489;37.404;24.920;2023-09-19T22:21:22;4.83;;;2.43;;
70122;SDS011;57489;37.404;24.920;2023-09-19T22:26:22;6.30;;;2.60;;
70122;SDS011;57489;37.404;24.920;2023-09-19T22:31:24;5.57;;;2.63;;
70122;SDS011;57489;37.404;24.920;2023-09-19T22:36:26;8.37;;;3.30;;
70122;SDS011;57489;37.404;24.920;2023-09-19T22:41:27;7.13;;;3.13;;
70122;SDS011;57489;37.404;24.920;2023-09-19T22:46:28;5.50;;;2.80;;
70122;SDS011;57489;37.404;24.920;2023-09-19T22:51:28;6.17;;;3.37;;
70122;SDS011;57489;37.404;24.920;2023-09-19T22:56:29;7.03;;;2.60;;
70122;SDS011;57489;37.404;24.920;2023-09-19T23:01:29;6.10;;;3.00;;
70122;SDS011;57489;37.404;24.920;2023-09-19T23:06:30;5.53;;;2.80;;
70122;SDS011;57489;37.404;24.920;2023-09-19T23:11:31;5.43;;;2.45;;
70122;SDS011;57489;37.404;24.920;2023-09-19T23:16:31;6.33;;;2.80;;
70122;SDS011;57489;37.404;24.920;2023-09-19T23:21:32;6.00;;;3.07;;
70122;SDS011;57489;37.404;24.920;2023-09-19T23:26:32;7.43;;;3.27;;
70122;SDS011;57489;37.404;24.920;2023-09-19T23:31:33;7.03;;;2.90;;
70122;SDS011;57489;37.404;24.920;2023-09-19T23:36:33;6.00;;;2.93;;
70122;SDS011;57489;37.404;24.920;2023-09-19T23:41:34;5.10;;;2.40;;
70122;SDS011;57489;37.404;24.920;2023-09-19T23:46:35;5.53;;;2.60;;
70122;SDS011;57489;37.404;24.920;2023-09-19T23:51:37;5.73;;;2.53;;
70122;SDS011;57489;37.404;24.920;2023-09-19T23:56:38;7.03;;;3.03;;
